createdAt,value
2022-12-25T00:02:21.705Z,12.20
2022-12-25T00:04:48.720Z,10.70
2022-12-25T00:07:15.328Z,11.00
2022-12-25T00:09:42.203Z,10.80
2022-12-25T00:12:08.885Z,11.70
2022-12-25T00:14:35.563Z,11.50
2022-12-25T00:17:02.304Z,11.40
2022-12-25T00:19:28.850Z,11.90
2022-12-25T00:21:55.538Z,11.60
2022-12-25T00:24:22.172Z,11.40
2022-12-25T00:26:48.748Z,11.60
2022-12-25T00:29:15.443Z,12.50
2022-12-25T00:31:42.223Z,13.70
2022-12-25T00:34:08.942Z,13.10
2022-12-25T00:36:41.422Z,13.30
2022-12-25T00:39:08.741Z,12.90
2022-12-25T00:41:54.021Z,13.60
2022-12-25T00:44:20.865Z,13.50
2022-12-25T00:46:47.536Z,13.30
2022-12-25T00:49:14.175Z,12.70
2022-12-25T00:51:40.811Z,12.10
2022-12-25T00:54:07.734Z,12.30
2022-12-25T00:56:34.693Z,12.00
2022-12-25T00:59:01.395Z,13.10
2022-12-25T01:01:28.174Z,12.30
2022-12-25T01:03:55.143Z,12.50
2022-12-25T01:06:21.754Z,12.70
2022-12-25T01:09:06.738Z,12.10
2022-12-25T01:11:33.573Z,12.20
2022-12-25T01:14:00.390Z,11.50
2022-12-25T01:16:27.366Z,11.70
2022-12-25T01:18:54.666Z,12.10
2022-12-25T01:21:22.150Z,12.40
2022-12-25T01:23:51.899Z,12.00
2022-12-25T01:26:21.163Z,11.60
2022-12-25T01:28:48.790Z,11.20
2022-12-25T01:31:18.551Z,11.10
2022-12-25T01:33:46.132Z,11.70
2022-12-25T01:36:24.368Z,11.00
2022-12-25T01:38:52.830Z,10.70
2022-12-25T01:41:22.253Z,10.40
2022-12-25T01:44:07.583Z,11.30
2022-12-25T01:46:35.442Z,15.60
2022-12-25T01:49:06.136Z,13.60
2022-12-25T01:51:41.257Z,14.40
2022-12-25T01:54:17.300Z,12.80
2022-12-25T01:56:47.501Z,13.00
2022-12-25T01:59:16.968Z,11.60
2022-12-25T02:01:43.996Z,11.80
2022-12-25T02:04:47.824Z,12.00
2022-12-25T02:07:20.144Z,11.30
2022-12-25T02:09:47.610Z,11.40
2022-12-25T02:12:21.058Z,10.60
2022-12-25T02:14:49.692Z,10.70
2022-12-25T02:17:37.740Z,10.40
2022-12-25T02:20:38.369Z,10.10
2022-12-25T02:23:29.389Z,10.70
2022-12-25T02:26:16.092Z,10.60
2022-12-25T02:29:10.109Z,10.70
2022-12-25T02:31:54.945Z,10.70
2022-12-25T02:34:42.352Z,10.90
2022-12-25T02:37:14.548Z,10.50
2022-12-25T02:40:19.527Z,10.10
2022-12-25T02:43:25.057Z,10.30
2022-12-25T02:46:15.653Z,10.80
2022-12-25T02:49:08.965Z,10.80
2022-12-25T02:51:58.709Z,11.10
2022-12-25T02:55:08.470Z,11.70
2022-12-25T02:58:01.192Z,11.20
2022-12-25T03:00:49.016Z,10.80
2022-12-25T03:03:35.618Z,10.80
2022-12-25T03:06:23.570Z,11.70
2022-12-25T03:09:15.340Z,10.20
2022-12-25T03:11:45.044Z,10.10
2022-12-25T03:14:30.018Z,10.60
2022-12-25T03:16:58.870Z,10.50
2022-12-25T03:19:48.107Z,10.40
2022-12-25T03:22:48.433Z,10.20
2022-12-25T03:25:35.653Z,10.30
2022-12-25T03:28:03.544Z,10.60
2022-12-25T03:31:01.994Z,11.00
2022-12-25T03:33:45.178Z,10.50
2022-12-25T03:36:33.188Z,10.10
2022-12-25T03:39:29.671Z,11.40
2022-12-25T03:42:18.719Z,11.30
2022-12-25T03:44:53.787Z,11.70
2022-12-25T03:47:34.524Z,11.50
2022-12-25T03:50:27.071Z,11.60
2022-12-25T03:53:17.110Z,10.70
2022-12-25T03:56:02.943Z,10.90
2022-12-25T03:58:48.213Z,11.00
2022-12-25T04:01:33.667Z,11.30
2022-12-25T04:04:19.078Z,11.30
2022-12-25T04:07:04.513Z,10.70
2022-12-25T04:09:50.264Z,11.30
2022-12-25T04:12:35.672Z,11.00
2022-12-25T04:15:21.137Z,11.10
2022-12-25T04:18:10.671Z,13.10
2022-12-25T04:20:55.708Z,13.40
2022-12-25T04:23:41.018Z,13.50
2022-12-25T04:26:26.286Z,12.80
2022-12-25T04:29:11.599Z,12.50
2022-12-25T04:31:57.356Z,12.30
2022-12-25T04:34:42.301Z,12.50
2022-12-25T04:37:09.040Z,12.50
2022-12-25T04:39:35.674Z,12.70
2022-12-25T04:42:02.315Z,12.60
2022-12-25T04:44:29.059Z,13.80
2022-12-25T04:46:55.752Z,14.00
2022-12-25T04:49:22.529Z,15.40
2022-12-25T04:51:49.124Z,15.90
2022-12-25T04:54:15.971Z,15.80
2022-12-25T04:56:45.814Z,16.10
2022-12-25T04:59:12.864Z,16.40
2022-12-25T05:01:40.269Z,16.00
2022-12-25T05:04:06.997Z,17.20
2022-12-25T05:06:33.700Z,17.60
2022-12-25T05:09:00.338Z,17.00
2022-12-25T05:11:27.081Z,17.80
2022-12-25T05:13:53.653Z,17.20
2022-12-25T05:16:20.906Z,17.30
2022-12-25T05:18:48.993Z,17.10
2022-12-25T05:21:16.076Z,16.80
2022-12-25T05:23:47.838Z,17.70
2022-12-25T05:26:16.640Z,16.60
2022-12-25T05:28:43.411Z,16.90
2022-12-25T05:31:10.755Z,16.70
2022-12-25T05:33:37.481Z,17.20
2022-12-25T05:36:05.390Z,17.10
2022-12-25T05:38:32.575Z,17.80
2022-12-25T05:40:59.310Z,16.20
2022-12-25T05:43:26.836Z,16.80
2022-12-25T05:45:53.854Z,17.10
2022-12-25T05:48:20.515Z,18.40
2022-12-25T05:50:47.124Z,18.00
2022-12-25T05:53:15.153Z,17.60
2022-12-25T05:55:45.583Z,18.40
2022-12-25T05:58:13.059Z,18.30
2022-12-25T06:00:40.394Z,18.70
2022-12-25T06:03:07.165Z,18.90
2022-12-25T06:05:33.877Z,18.60
2022-12-25T06:08:00.489Z,18.50
2022-12-25T06:10:27.153Z,18.60
2022-12-25T06:12:54.398Z,17.60
2022-12-25T06:15:21.036Z,17.80
2022-12-25T06:17:47.624Z,17.40
2022-12-25T06:20:14.306Z,17.60
2022-12-25T06:22:40.944Z,18.00
2022-12-25T06:25:08.479Z,17.80
2022-12-25T06:27:35.242Z,18.20
2022-12-25T06:30:02.425Z,17.50
2022-12-25T06:32:29.025Z,17.40
2022-12-25T06:34:55.705Z,17.20
2022-12-25T06:37:22.277Z,17.30
2022-12-25T06:39:48.940Z,17.50
2022-12-25T06:42:15.556Z,18.30
2022-12-25T06:44:42.258Z,19.30
2022-12-25T06:47:08.868Z,19.00
2022-12-25T06:49:35.589Z,19.20
2022-12-25T06:52:02.543Z,19.20
2022-12-25T06:54:29.351Z,18.80
2022-12-25T06:56:55.870Z,18.60
2022-12-25T06:59:22.646Z,18.70
2022-12-25T07:01:52.237Z,19.30
2022-12-25T07:04:35.177Z,20.20
2022-12-25T07:07:08.340Z,20.00
2022-12-25T07:09:38.036Z,19.50
2022-12-25T07:12:17.276Z,19.60
2022-12-25T07:14:45.078Z,19.50
2022-12-25T07:17:11.699Z,19.10
2022-12-25T07:19:44.503Z,19.80
2022-12-25T07:22:12.744Z,18.50
2022-12-25T07:24:39.495Z,18.40
2022-12-25T07:27:06.549Z,15.40
2022-12-25T07:29:33.792Z,17.20
2022-12-25T07:32:00.533Z,17.40
2022-12-25T07:34:27.270Z,17.60
2022-12-25T07:36:54.621Z,19.30
2022-12-25T07:39:21.461Z,20.60
2022-12-25T07:41:48.139Z,22.30
2022-12-25T07:44:15.600Z,25.10
2022-12-25T07:46:42.817Z,32.00
2022-12-25T07:49:10.687Z,30.50
2022-12-25T07:51:37.427Z,34.40
2022-12-25T07:54:04.588Z,30.90
2022-12-25T07:56:31.310Z,26.50
2022-12-25T07:58:57.916Z,23.80
2022-12-25T08:01:26.515Z,27.90
2022-12-25T08:03:59.507Z,31.80
2022-12-25T08:06:30.214Z,32.40
2022-12-25T08:09:01.719Z,33.90
2022-12-25T08:11:28.539Z,32.80
2022-12-25T08:13:55.173Z,36.30
2022-12-25T08:16:22.235Z,45.90
2022-12-25T08:18:49.068Z,43.70
2022-12-25T08:21:16.145Z,39.10
2022-12-25T08:23:45.321Z,35.40
2022-12-25T08:26:15.424Z,38.80
2022-12-25T08:28:42.161Z,36.80
2022-12-25T08:31:16.748Z,26.20
2022-12-25T08:33:44.138Z,26.80
2022-12-25T08:36:12.620Z,23.60
2022-12-25T08:38:40.342Z,19.30
2022-12-25T08:41:07.570Z,19.40
2022-12-25T08:43:34.456Z,20.70
2022-12-25T08:46:01.361Z,22.20
2022-12-25T08:48:28.251Z,26.20
2022-12-25T08:50:55.118Z,25.20
2022-12-25T08:53:22.545Z,23.60
2022-12-25T08:55:49.636Z,24.20
2022-12-25T08:58:16.358Z,22.90
2022-12-25T09:00:43.002Z,21.60
2022-12-25T09:03:09.688Z,21.20
2022-12-25T09:05:36.947Z,22.40
2022-12-25T09:08:03.969Z,21.20
2022-12-25T09:10:30.833Z,19.70
2022-12-25T09:12:57.619Z,23.30
2022-12-25T09:15:24.242Z,23.60
2022-12-25T09:17:51.016Z,21.20
2022-12-25T09:20:17.617Z,21.80
2022-12-25T09:22:44.413Z,22.10
2022-12-25T09:25:11.711Z,22.50
2022-12-25T09:27:38.714Z,22.00
2022-12-25T09:30:06.611Z,22.00
2022-12-25T09:32:33.306Z,23.30
2022-12-25T09:34:59.887Z,24.50
2022-12-25T09:37:27.443Z,24.30
2022-12-25T09:39:54.086Z,23.70
2022-12-25T09:42:24.793Z,23.90
2022-12-25T09:44:57.127Z,28.70
2022-12-25T09:47:28.432Z,48.90
2022-12-25T09:50:07.084Z,37.30
2022-12-25T09:52:33.891Z,39.00
2022-12-25T09:55:07.831Z,33.40
2022-12-25T09:57:34.432Z,29.70
2022-12-25T10:00:01.094Z,31.30
2022-12-25T10:02:52.747Z,31.40
2022-12-25T10:05:43.782Z,29.70
2022-12-25T10:08:25.889Z,28.20
2022-12-25T10:11:15.481Z,26.00
2022-12-25T10:14:13.894Z,24.20
2022-12-25T10:17:05.275Z,21.90
2022-12-25T10:19:44.921Z,22.70
2022-12-25T10:22:19.978Z,21.60
2022-12-25T10:24:53.582Z,20.70
2022-12-25T10:27:26.234Z,19.70
2022-12-25T10:29:54.297Z,21.40
2022-12-25T10:32:21.959Z,20.10
2022-12-25T10:34:49.213Z,20.70
2022-12-25T10:37:16.873Z,21.90
2022-12-25T10:39:46.697Z,20.10
2022-12-25T10:42:40.391Z,21.70
2022-12-25T10:45:09.460Z,25.70
2022-12-25T10:47:42.326Z,23.10
2022-12-25T10:50:09.412Z,24.30
2022-12-25T10:52:51.464Z,25.80
2022-12-25T10:55:26.574Z,25.40
2022-12-25T10:57:57.243Z,20.60
2022-12-25T11:00:30.058Z,21.90
2022-12-25T11:02:57.503Z,24.10
2022-12-25T11:05:35.709Z,25.00
2022-12-25T11:08:03.676Z,24.00
2022-12-25T11:10:41.672Z,24.00
2022-12-25T11:13:28.765Z,23.70
2022-12-25T11:16:04.565Z,24.60
2022-12-25T11:18:49.568Z,24.00
2022-12-25T11:21:21.659Z,28.60
2022-12-25T11:23:54.957Z,29.00
2022-12-25T11:26:22.013Z,30.60
2022-12-25T11:28:50.758Z,26.80
2022-12-25T11:31:20.632Z,23.80
2022-12-25T11:34:02.846Z,23.60
2022-12-25T11:36:44.176Z,28.50
2022-12-25T11:39:34.932Z,29.50
2022-12-25T11:42:05.716Z,27.10
2022-12-25T11:44:45.158Z,22.90
2022-12-25T11:47:30.214Z,27.70
2022-12-25T11:50:35.069Z,29.60
2022-12-25T11:53:09.348Z,31.00
2022-12-25T11:55:54.060Z,29.70
2022-12-25T11:58:37.058Z,24.70
2022-12-25T12:01:16.565Z,25.50
2022-12-25T12:03:44.381Z,24.30
2022-12-25T12:06:32.292Z,25.10
2022-12-25T12:09:24.017Z,24.00
2022-12-25T12:12:04.716Z,22.90
2022-12-25T12:14:33.977Z,20.00
2022-12-25T12:17:00.727Z,22.20
2022-12-25T12:19:29.973Z,24.40
2022-12-25T12:21:59.731Z,23.90
2022-12-25T12:24:35.527Z,24.20
2022-12-25T12:27:12.865Z,26.80
2022-12-25T12:29:43.635Z,23.80
2022-12-25T12:32:33.480Z,26.60
2022-12-25T12:35:08.591Z,28.20
2022-12-25T12:37:38.425Z,29.30
2022-12-25T12:40:08.492Z,23.60
2022-12-25T12:42:45.739Z,25.40
2022-12-25T12:45:31.440Z,23.60
2022-12-25T12:47:58.771Z,22.10
2022-12-25T12:50:40.360Z,22.30
2022-12-25T12:53:21.733Z,23.50
2022-12-25T12:55:49.164Z,25.60
2022-12-25T12:58:35.072Z,25.80
2022-12-25T13:01:10.713Z,21.10
2022-12-25T13:03:52.232Z,20.90
2022-12-25T13:06:33.703Z,20.60
2022-12-25T13:09:28.291Z,20.60
2022-12-25T13:11:55.140Z,19.70
2022-12-25T13:14:23.830Z,20.20
2022-12-25T13:16:54.342Z,20.80
2022-12-25T13:19:26.931Z,23.50
2022-12-25T13:21:58.676Z,22.30
2022-12-25T13:24:28.212Z,20.00
2022-12-25T13:26:55.115Z,19.10
2022-12-25T13:29:36.538Z,18.20
2022-12-25T13:32:06.602Z,19.60
2022-12-25T13:34:42.076Z,21.40
2022-12-25T13:37:13.119Z,21.40
2022-12-25T13:40:04.571Z,22.10
2022-12-25T13:42:37.105Z,19.80
2022-12-25T13:45:21.549Z,21.00
2022-12-25T13:47:54.862Z,22.60
2022-12-25T13:50:29.991Z,21.30
2022-12-25T13:53:09.139Z,22.30
2022-12-25T13:55:36.308Z,21.10
2022-12-25T13:58:07.103Z,21.00
2022-12-25T14:00:52.539Z,28.40
2022-12-25T14:03:24.173Z,24.50
2022-12-25T14:06:05.414Z,23.90
2022-12-25T14:08:34.838Z,22.40
2022-12-25T14:11:05.028Z,22.70
2022-12-25T14:13:37.306Z,25.00
2022-12-25T14:16:04.841Z,27.40
2022-12-25T14:18:32.740Z,27.20
2022-12-25T14:21:02.789Z,27.20
2022-12-25T14:23:40.780Z,28.10
2022-12-25T14:26:24.685Z,29.10
2022-12-25T14:28:54.432Z,29.30
2022-12-25T14:31:23.354Z,27.20
2022-12-25T14:33:53.313Z,28.00
2022-12-25T14:36:20.656Z,26.60
2022-12-25T14:39:05.213Z,34.70
2022-12-25T14:41:38.284Z,39.30
2022-12-25T14:44:25.928Z,38.40
2022-12-25T14:47:18.972Z,40.20
2022-12-25T14:49:46.438Z,36.90
2022-12-25T14:52:18.918Z,34.60
2022-12-25T14:54:49.056Z,32.00
2022-12-25T14:57:39.792Z,31.00
2022-12-25T15:00:25.326Z,36.50
2022-12-25T15:02:54.943Z,30.00
2022-12-25T15:05:25.223Z,31.80
2022-12-25T15:07:59.139Z,32.30
2022-12-25T15:10:59.054Z,31.10
2022-12-25T15:13:15.077Z,29.10
2022-12-25T15:15:49.987Z,28.50
2022-12-25T15:18:18.385Z,27.80
2022-12-25T15:20:45.348Z,26.60
2022-12-25T15:23:20.033Z,26.60
2022-12-25T15:25:48.017Z,27.60
2022-12-25T15:28:14.849Z,29.00
2022-12-25T15:30:41.821Z,29.40
2022-12-25T15:33:14.803Z,30.10
2022-12-25T15:35:43.740Z,30.10
2022-12-25T15:38:12.046Z,27.80
2022-12-25T15:40:39.278Z,26.20
2022-12-25T15:43:11.341Z,25.20
2022-12-25T15:45:49.104Z,26.50
2022-12-25T15:48:15.793Z,28.60
2022-12-25T15:50:43.596Z,28.60
2022-12-25T15:53:10.810Z,30.90
2022-12-25T15:55:38.264Z,29.40
2022-12-25T15:58:04.905Z,28.40
2022-12-25T16:00:31.638Z,29.00
2022-12-25T16:02:58.621Z,27.30
2022-12-25T16:05:26.657Z,26.60
2022-12-25T16:07:53.291Z,25.30
2022-12-25T16:10:20.241Z,24.70
2022-12-25T16:12:46.868Z,25.20
2022-12-25T16:15:14.915Z,24.60
2022-12-25T16:17:41.631Z,24.60
2022-12-25T16:20:09.103Z,24.90
2022-12-25T16:22:39.365Z,25.90
2022-12-25T16:25:18.598Z,24.90
2022-12-25T16:27:45.952Z,23.60
2022-12-25T16:30:15.990Z,24.40
2022-12-25T16:32:43.585Z,24.60
2022-12-25T16:35:11.483Z,24.00
2022-12-25T16:37:38.538Z,25.20
2022-12-25T16:40:07.781Z,25.60
2022-12-25T16:42:35.496Z,25.40
2022-12-25T16:45:03.211Z,24.60
2022-12-25T16:47:30.039Z,24.80
2022-12-25T16:49:56.625Z,24.10
2022-12-25T16:52:23.314Z,24.50
2022-12-25T16:54:49.851Z,27.30
2022-12-25T16:57:16.564Z,27.40
2022-12-25T16:59:43.098Z,25.70
2022-12-25T17:02:16.148Z,25.70
2022-12-25T17:04:44.386Z,25.30
2022-12-25T17:07:13.087Z,25.70
2022-12-25T17:09:44.134Z,25.90
2022-12-25T17:12:11.234Z,25.60
2022-12-25T17:14:37.885Z,24.90
2022-12-25T17:17:04.821Z,28.70
2022-12-25T17:19:31.647Z,34.00
2022-12-25T17:21:59.279Z,42.00
2022-12-25T17:24:26.792Z,32.90
2022-12-25T17:26:53.688Z,27.70
2022-12-25T17:29:22.631Z,27.50
2022-12-25T17:31:50.887Z,26.70
2022-12-25T17:34:17.934Z,27.10
2022-12-25T17:36:44.847Z,26.70
2022-12-25T17:39:12.370Z,26.30
2022-12-25T17:41:39.059Z,26.00
2022-12-25T17:44:05.776Z,25.20
2022-12-25T17:46:32.598Z,25.60
2022-12-25T17:49:00.769Z,24.40
2022-12-25T17:51:29.824Z,24.00
2022-12-25T17:53:59.812Z,23.20
2022-12-25T17:56:26.641Z,23.60
2022-12-25T17:58:56.565Z,24.20
2022-12-25T18:01:24.811Z,24.40
2022-12-25T18:03:52.136Z,26.00
2022-12-25T18:06:21.487Z,28.10
2022-12-25T18:08:49.479Z,27.80
2022-12-25T18:11:19.715Z,27.90
2022-12-25T18:13:49.284Z,28.70
2022-12-25T18:16:17.334Z,27.80
2022-12-25T18:18:51.404Z,27.60
2022-12-25T18:21:21.168Z,27.10
2022-12-25T18:23:48.399Z,26.10
2022-12-25T18:26:15.274Z,25.60
2022-12-25T18:28:43.436Z,26.30
2022-12-25T18:31:13.086Z,26.80
2022-12-25T18:33:40.201Z,31.20
2022-12-25T18:36:11.382Z,36.30
2022-12-25T18:38:37.977Z,34.80
2022-12-25T18:41:06.835Z,37.20
2022-12-25T18:43:53.807Z,35.80
2022-12-25T18:46:23.193Z,36.80
2022-12-25T18:48:49.928Z,38.30
2022-12-25T18:51:17.167Z,36.40
2022-12-25T18:53:44.014Z,32.50
2022-12-25T18:56:16.789Z,30.50
2022-12-25T18:58:44.358Z,35.20
2022-12-25T19:01:16.855Z,32.20
2022-12-25T19:03:44.745Z,27.00
2022-12-25T19:06:19.072Z,27.60
2022-12-25T19:08:45.986Z,30.90
2022-12-25T19:11:13.135Z,31.10
2022-12-25T19:13:40.140Z,29.40
2022-12-25T19:16:07.030Z,27.80
2022-12-25T19:18:33.827Z,24.80
2022-12-25T19:21:02.309Z,26.60
2022-12-25T19:23:29.055Z,26.70
2022-12-25T19:25:55.786Z,28.00
2022-12-25T19:28:24.400Z,29.60
2022-12-25T19:30:53.312Z,30.70
2022-12-25T19:33:21.488Z,27.50
2022-12-25T19:35:48.480Z,26.00
2022-12-25T19:38:15.728Z,23.30
2022-12-25T19:40:59.522Z,25.40
2022-12-25T19:43:32.756Z,24.60
2022-12-25T19:46:01.196Z,25.00
2022-12-25T19:48:30.653Z,25.20
2022-12-25T19:50:57.830Z,25.30
2022-12-25T19:53:25.159Z,25.80
2022-12-25T19:55:53.003Z,25.70
2022-12-25T19:58:21.421Z,25.80
2022-12-25T20:01:04.781Z,26.60
2022-12-25T20:03:32.603Z,25.80
2022-12-25T20:05:59.605Z,24.80
2022-12-25T20:08:26.367Z,26.00
2022-12-25T20:10:52.992Z,25.00
2022-12-25T20:13:19.894Z,24.70
2022-12-25T20:15:47.486Z,24.90
2022-12-25T20:18:14.152Z,25.00
2022-12-25T20:20:40.877Z,25.90
2022-12-25T20:23:07.536Z,24.00
2022-12-25T20:25:38.867Z,25.70
2022-12-25T20:28:05.701Z,26.70
2022-12-25T20:30:36.971Z,26.00
2022-12-25T20:33:03.693Z,24.60
2022-12-25T20:35:30.336Z,26.20
2022-12-25T20:37:57.061Z,25.50
2022-12-25T20:40:24.014Z,25.40
2022-12-25T20:42:53.725Z,26.20
2022-12-25T20:45:20.359Z,26.60
2022-12-25T20:47:47.099Z,26.20
2022-12-25T20:50:13.729Z,26.90
2022-12-25T20:52:40.285Z,27.20
2022-12-25T20:55:07.435Z,27.00
2022-12-25T20:57:34.082Z,27.20
2022-12-25T21:00:00.784Z,27.20
2022-12-25T21:02:34.793Z,26.70
2022-12-25T21:05:06.379Z,25.70
2022-12-25T21:07:33.597Z,24.90
2022-12-25T21:10:00.311Z,24.00
2022-12-25T21:12:27.265Z,23.60
2022-12-25T21:14:53.947Z,23.90
2022-12-25T21:17:20.662Z,23.50
2022-12-25T21:19:47.399Z,25.50
2022-12-25T21:22:14.333Z,23.10
2022-12-25T21:24:40.985Z,23.40
2022-12-25T21:27:08.747Z,23.70
2022-12-25T21:29:35.423Z,22.30
2022-12-25T21:32:20.451Z,23.90
2022-12-25T21:34:47.014Z,25.40
2022-12-25T21:37:13.622Z,26.80
2022-12-25T21:39:40.359Z,24.40
2022-12-25T21:42:07.307Z,23.70
2022-12-25T21:44:34.045Z,22.80
2022-12-25T21:47:00.625Z,24.70
2022-12-25T21:49:45.757Z,25.70
2022-12-25T21:52:12.389Z,26.00
2022-12-25T21:54:39.022Z,25.90
2022-12-25T21:57:05.596Z,25.40
2022-12-25T21:59:32.183Z,24.70
2022-12-25T22:01:59.057Z,23.20
2022-12-25T22:04:26.389Z,22.80
2022-12-25T22:07:11.706Z,23.20
2022-12-25T22:09:38.521Z,23.00
2022-12-25T22:12:28.597Z,23.40
2022-12-25T22:15:08.911Z,23.00
2022-12-25T22:17:56.367Z,24.20
2022-12-25T22:20:31.035Z,23.80
2022-12-25T22:22:57.936Z,25.50
2022-12-25T22:25:25.395Z,24.40
2022-12-25T22:27:52.640Z,25.20
2022-12-25T22:30:24.814Z,25.80
2022-12-25T22:32:52.022Z,26.60
2022-12-25T22:35:19.474Z,25.80
2022-12-25T22:37:47.542Z,26.80
2022-12-25T22:40:15.889Z,26.40
2022-12-25T22:42:42.531Z,27.00
2022-12-25T22:45:10.387Z,25.80
2022-12-25T22:47:37.516Z,25.60
2022-12-25T22:50:05.605Z,24.50
2022-12-25T22:52:32.469Z,25.20
2022-12-25T22:54:59.176Z,23.90
2022-12-25T22:57:26.018Z,24.70
2022-12-25T22:59:53.162Z,24.40
2022-12-25T23:02:20.625Z,24.60
2022-12-25T23:04:47.563Z,24.30
2022-12-25T23:07:15.188Z,24.20
2022-12-25T23:09:43.000Z,24.00
2022-12-25T23:12:33.496Z,22.50
2022-12-25T23:15:00.140Z,23.60
2022-12-25T23:17:45.481Z,22.60
2022-12-25T23:20:33.251Z,22.50
2022-12-25T23:23:19.965Z,22.30
2022-12-25T23:26:05.298Z,21.40
2022-12-25T23:28:50.887Z,21.00
2022-12-25T23:31:18.030Z,20.80
2022-12-25T23:33:44.777Z,20.60
2022-12-25T23:36:11.458Z,20.90
2022-12-25T23:38:38.148Z,20.90
2022-12-25T23:41:05.481Z,21.50
2022-12-25T23:43:32.165Z,19.90
2022-12-25T23:45:59.096Z,20.00
2022-12-25T23:48:25.983Z,19.60
2022-12-25T23:50:52.668Z,18.30
2022-12-25T23:53:19.253Z,19.10
2022-12-25T23:55:50.131Z,19.40
2022-12-25T23:58:21.956Z,19.90
